Time;durP1;ratioP1;P1;durP2;ratioP2;P2;SDS_P1;SDS_P2;PMS_P1;PMS_P2;Temp;Humidity;BMP_temperature;BMP_pressure;BME280_temperature;BME280_humidity;BME280_pressure;Samples;Min_cycle;Max_cycle;Signal;HPM_P1;HPM_P2
2022/11/05 00:09:32;;;;;;;1.83;0.70;;;;;;;12.62;48.66;99858.78;5011530;28;20053;-79
2022/11/05 00:18:23;;;;;;;4.68;0.73;;;;;;;12.42;47.48;99853.22;5004608;28;20057;-77
2022/11/05 00:25:12;;;;;;;0.70;0.32;;;;;;;12.38;47.61;99851.53;4999280;28;20077;-78
2022/11/05 00:27:16;;;;;;;1.15;0.77;;;;;;;12.35;48.12;99855.75;5011476;28;20053;-79
2022/11/05 00:30:01;;;;;;;1.98;1.02;;;;;;;12.34;47.09;99853.38;5013148;28;20413;-79
2022/11/05 00:32:47;;;;;;;;;;;;;;;12.33;46.12;99868.16;5017958;28;20117;-79
2022/11/05 00:35:31;;;;;;;0.30;0.30;;;;;;;12.23;45.88;99858.53;5021401;28;19914;-79
2022/11/05 00:38:16;;;;;;;0.30;0.30;;;;;;;12.33;47.68;99868.16;5016030;28;20064;-77
2022/11/05 00:41:01;;;;;;;;;;;;;;;12.23;46.85;99863.19;4996561;28;20049;-78
2022/11/05 00:46:48;;;;;;;1.58;0.47;;;;;;;12.13;46.99;99863.69;5014668;28;20053;-78
2022/11/05 00:49:33;;;;;;;1.40;0.45;;;;;;;12.19;47.12;99862.31;5011313;28;20417;-79
2022/11/05 00:55:27;;;;;;;1.00;0.60;;;;;;;11.94;48.24;99861.56;4997035;28;20053;-78
2022/11/05 00:58:15;;;;;;;0.82;0.40;;;;;;;12.03;48.07;99864.97;5000644;28;20049;-79
2022/11/05 01:01:01;;;;;;;1.27;0.63;;;;;;;12.00;48.63;99871.09;4999289;28;20053;-79
2022/11/05 01:03:46;;;;;;;3.05;0.60;;;;;;;11.97;47.51;99864.41;5007656;28;20045;-78
2022/11/05 01:06:31;;;;;;;0.70;0.50;;;;;;;12.05;49.44;99861.88;5015883;28;20061;-78
2022/11/05 01:09:15;;;;;;;2.03;0.47;;;;;;;12.10;51.08;99870.59;5015807;28;20048;-79
2022/11/05 01:12:00;;;;;;;0.63;0.25;;;;;;;12.17;48.49;99870.81;4998163;28;20054;-78
2022/11/05 01:14:44;;;;;;;3.35;0.20;;;;;;;12.23;48.42;99871.38;5016346;28;20052;-79
2022/11/05 01:17:29;;;;;;;0.98;0.50;;;;;;;12.34;48.33;99870.50;5016900;28;20448;-80
2022/11/05 01:20:13;;;;;;;2.65;0.30;;;;;;;12.33;45.55;99865.41;5016499;28;20049;-79
2022/11/05 01:22:58;;;;;;;0.52;0.10;;;;;;;12.32;45.81;99869.28;5016783;28;20049;-79
2022/11/05 01:25:43;;;;;;;;;;;;;;;12.43;45.01;99875.81;5017046;28;20053;-79
2022/11/05 01:28:27;;;;;;;0.20;0.20;;;;;;;12.40;43.52;99876.50;5017983;28;20377;-79
2022/11/05 01:31:12;;;;;;;0.32;0.30;;;;;;;12.39;44.26;99877.66;5006739;28;20096;-79
2022/11/05 01:33:58;;;;;;;0.17;0.10;;;;;;;12.42;44.61;99879.69;4998375;28;20054;-79
2022/11/05 01:36:43;;;;;;;0.30;0.20;;;;;;;12.40;43.56;99879.22;4999081;28;20042;-79
2022/11/05 01:39:28;;;;;;;0.10;0.10;;;;;;;12.46;43.26;99877.06;4998043;28;20057;-80
2022/11/05 01:42:19;;;;;;;0.10;0.10;;;;;;;12.43;42.97;99878.56;5014968;28;20045;-79
2022/11/05 01:45:12;;;;;;;0.10;0.10;;;;;;;12.43;42.04;99886.72;5017677;28;20413;-79
2022/11/05 01:48:10;;;;;;;2.63;0.25;;;;;;;12.34;42.32;99884.13;5020670;28;20037;-79
2022/11/05 01:51:03;;;;;;;1.95;0.20;;;;;;;12.23;45.61;99895.91;5016340;28;20532;-78
2022/11/05 01:54:05;;;;;;;2.22;0.10;;;;;;;12.34;44.75;99897.00;4995824;28;20049;-79
2022/11/05 01:56:55;;;;;;;2.00;0.20;;;;;;;12.34;45.33;99902.44;4997487;28;20616;-79
2022/11/05 01:59:44;;;;;;;0.30;0.30;;;;;;;12.38;44.70;99906.88;5015033;28;20420;-79
2022/11/05 02:02:30;;;;;;;0.20;0.20;;;;;;;12.37;44.02;99905.28;5009384;28;20397;-78
2022/11/05 02:05:15;;;;;;;0.10;0.10;;;;;;;12.43;45.03;99905.81;5015889;28;20051;-79
2022/11/05 02:08:00;;;;;;;0.65;0.17;;;;;;;12.44;45.65;99907.41;5017103;28;20545;-80
2022/11/05 02:10:45;;;;;;;;;;;;;;;12.54;46.26;99915.09;5022519;28;20065;-80
2022/11/05 02:13:30;;;;;;;0.13;0.10;;;;;;;12.51;45.29;99913.03;5015332;28;19917;-79
2022/11/05 02:16:22;;;;;;;;;;;;;;;12.58;42.98;99913.25;5017211;28;20044;-78
2022/11/05 02:19:47;;;;;;;0.47;0.20;;;;;;;12.64;44.17;99922.78;5014320;28;20376;-79
2022/11/05 02:22:31;;;;;;;0.10;0.10;;;;;;;12.63;42.65;99921.19;5012270;28;20045;-79
2022/11/05 02:25:42;;;;;;;1.40;0.80;;;;;;;12.60;41.39;99921.06;4995345;28;20045;-79
2022/11/05 02:28:27;;;;;;;4.32;0.30;;;;;;;12.60;41.40;99932.78;5003960;28;20053;-79
2022/11/05 02:31:24;;;;;;;2.80;0.20;;;;;;;12.61;41.23;99928.91;5015535;28;20053;-80
2022/11/05 02:34:46;;;;;;;0.30;0.20;;;;;;;12.64;42.56;99930.97;5006815;28;20531;-78
2022/11/05 02:37:39;;;;;;;0.30;0.10;;;;;;;12.69;41.49;99925.25;4999227;28;20057;-78
2022/11/05 02:40:44;;;;;;;0.20;0.20;;;;;;;12.70;43.28;99929.53;4994021;28;20049;-79
2022/11/05 02:43:47;;;;;;;0.30;0.10;;;;;;;12.65;41.87;99932.53;4998784;28;20413;-77
2022/11/05 02:46:34;;;;;;;0.60;0.30;;;;;;;12.74;44.06;99943.31;5015379;28;20048;-79
2022/11/05 02:49:38;;;;;;;1.15;0.20;;;;;;;12.77;42.82;99943.38;5017472;28;20420;-79
2022/11/05 02:52:54;;;;;;;3.40;0.25;;;;;;;12.76;41.95;99930.09;5014945;28;20069;-79
2022/11/05 02:55:41;;;;;;;1.98;0.10;;;;;;;12.76;43.71;99941.00;4985266;22;20058;-79
2022/11/05 02:58:27;;;;;;;0.10;0.10;;;;;;;12.67;44.37;99938.44;4965402;28;20046;-79
2022/11/05 03:01:13;;;;;;;1.02;0.13;;;;;;;12.73;46.23;99952.63;4988279;28;20058;-79
2022/11/05 03:04:04;;;;;;;0.10;0.00;;;;;;;12.79;44.59;99954.75;4969600;28;20050;-79
2022/11/05 03:07:11;;;;;;;0.15;0.15;;;;;;;12.88;45.79;99953.78;4973790;28;20066;-79
2022/11/05 03:10:23;;;;;;;0.10;0.10;;;;;;;13.08;47.68;99964.50;4962113;28;20052;-79
2022/11/05 03:13:30;;;;;;;0.10;0.10;;;;;;;13.09;45.83;99966.09;4961487;28;20639;-79
2022/11/05 03:16:37;;;;;;;0.55;0.30;;;;;;;13.04;44.89;99965.53;4959483;28;20050;-79
2022/11/05 03:19:39;;;;;;;0.28;0.20;;;;;;;13.14;43.14;99965.06;4962141;29;20130;-79
2022/11/05 03:22:33;;;;;;;0.10;0.10;;;;;;;13.16;43.17;99960.81;4962931;28;20041;-79
2022/11/05 03:25:21;;;;;;;0.28;0.15;;;;;;;13.08;41.45;99969.94;4966038;28;20050;-79
2022/11/05 03:28:09;;;;;;;5.38;0.20;;;;;;;13.11;41.60;99974.72;5061283;28;20044;-79
2022/11/05 03:30:57;;;;;;;1.00;0.20;;;;;;;13.09;42.10;99981.66;5062138;28;20056;-79
2022/11/05 03:33:44;;;;;;;0.73;0.10;;;;;;;12.98;43.71;99995.03;4992192;28;20050;-79
2022/11/05 03:36:43;;;;;;;0.20;0.20;;;;;;;12.96;43.20;99982.84;4961050;29;20056;-79
2022/11/05 03:39:32;;;;;;;5.50;0.30;;;;;;;12.96;43.98;99994.56;4961501;29;20051;-79
2022/11/05 03:42:22;;;;;;;1.48;0.50;;;;;;;13.02;43.32;99992.38;4978550;28;20065;-79
2022/11/05 03:45:13;;;;;;;0.55;0.22;;;;;;;12.95;44.50;99995.72;4959809;28;20042;-79
2022/11/05 03:48:01;;;;;;;0.30;0.28;;;;;;;13.05;45.94;100002.63;4960284;29;20051;-79
2022/11/05 03:51:01;;;;;;;0.47;0.20;;;;;;;13.00;44.69;100005.59;4965168;29;20054;-79
2022/11/05 03:53:51;;;;;;;0.32;0.30;;;;;;;12.96;43.93;99999.22;4959750;29;20046;-79
2022/11/05 03:56:52;;;;;;;0.10;0.10;;;;;;;12.96;45.93;100007.41;4963941;29;20050;-79
2022/11/05 03:59:43;;;;;;;0.20;0.20;;;;;;;12.78;44.76;100004.22;4959962;29;20046;-79
2022/11/05 04:02:30;;;;;;;0.28;0.10;;;;;;;12.95;45.65;100005.84;4960355;29;20043;-80
2022/11/05 04:05:15;;;;;;;1.17;0.22;;;;;;;13.05;46.09;100005.34;4960227;29;20054;-79
2022/11/05 04:14:07;;;;;;;0.63;0.28;;;;;;;12.92;44.09;100006.53;4965580;28;20505;-79
2022/11/05 04:17:10;;;;;;;;;;;;;;;13.00;45.70;100006.41;4961370;29;20058;-80
2022/11/05 04:26:07;;;;;;;0.30;0.20;;;;;;;12.82;47.06;100014.06;4963428;29;20051;-80
2022/11/05 04:31:56;;;;;;;0.30;0.30;;;;;;;12.92;41.16;100014.72;4964422;29;20043;-79
2022/11/05 04:34:40;;;;;;;5.13;0.30;;;;;;;12.88;41.56;100024.75;4961875;29;20054;-79
2022/11/05 04:37:25;;;;;;;0.45;0.20;;;;;;;12.79;42.58;100016.72;4961008;29;20050;-79
2022/11/05 04:40:10;;;;;;;;;;;;;;;12.76;40.93;100020.91;4961025;29;20062;-79
2022/11/05 04:42:54;;;;;;;0.20;0.20;;;;;;;12.72;42.94;100025.47;4981051;28;19915;-79
2022/11/05 04:45:39;;;;;;;0.20;0.20;;;;;;;12.74;41.83;100020.47;4975721;28;20054;-79
2022/11/05 04:48:24;;;;;;;0.10;0.10;;;;;;;12.78;41.35;100020.56;4960756;29;20058;-79
2022/11/05 04:51:09;;;;;;;0.47;0.10;;;;;;;12.74;43.85;100028.66;4960341;29;20055;-79
2022/11/05 04:53:54;;;;;;;0.75;0.10;;;;;;;12.76;45.11;100029.09;4961657;28;20047;-79
2022/11/05 04:56:39;;;;;;;;;;;;;;;12.72;44.29;100030.13;4960991;28;20050;-79
2022/11/05 04:59:23;;;;;;;0.10;0.10;;;;;;;12.75;44.76;100027.50;4966876;28;19914;-79
2022/11/05 05:02:08;;;;;;;0.47;0.17;;;;;;;12.82;44.97;100033.19;4965234;28;20521;-79
2022/11/05 05:04:53;;;;;;;0.00;0.00;;;;;;;12.83;44.61;100042.97;4964207;28;20062;-79
2022/11/05 05:07:38;;;;;;;1.70;0.13;;;;;;;12.84;43.68;100041.81;4968518;28;20050;-82
2022/11/05 05:10:23;;;;;;;0.38;0.10;;;;;;;12.83;43.73;100051.13;4963226;29;20058;-79
2022/11/05 05:13:10;;;;;;;0.45;0.10;;;;;;;12.78;43.38;100056.03;4953083;29;20990;-79
2022/11/05 05:15:55;;;;;;;0.25;0.20;;;;;;;12.74;43.50;100061.41;4963298;28;20050;-79
2022/11/05 05:18:39;;;;;;;0.35;0.10;;;;;;;12.79;43.91;100063.88;4966369;28;20066;-80
2022/11/05 05:21:39;;;;;;;0.13;0.13;;;;;;;12.66;43.23;100062.31;4961162;28;20050;-79
2022/11/05 05:24:24;;;;;;;0.20;0.20;;;;;;;12.62;43.41;100066.09;4965405;28;20062;-79
2022/11/05 05:27:09;;;;;;;0.82;0.20;;;;;;;12.62;43.35;100066.88;4961252;29;20046;-79
2022/11/05 05:29:55;;;;;;;;;;;;;;;12.71;44.63;100069.47;4961097;29;20059;-79
2022/11/05 05:32:40;;;;;;;;;;;;;;;12.71;42.88;100073.00;4967130;28;19926;-79
2022/11/05 05:35:24;;;;;;;0.38;0.20;;;;;;;12.70;43.61;100065.13;4958361;28;19914;-79
2022/11/05 05:38:09;;;;;;;2.45;0.30;;;;;;;12.75;43.95;100076.59;4967393;28;20051;-79
2022/11/05 05:40:57;;;;;;;0.10;0.10;;;;;;;12.85;44.09;100078.84;4971344;28;20046;-79
2022/11/05 05:43:41;;;;;;;0.35;0.28;;;;;;;12.84;42.47;100079.22;4956546;28;20046;-80
2022/11/05 05:46:26;;;;;;;0.32;0.22;;;;;;;12.88;41.10;100085.56;4979341;28;20430;-79
2022/11/05 05:49:11;;;;;;;0.80;0.20;;;;;;;12.82;41.66;100090.47;4964911;28;20054;-79
2022/11/05 05:51:56;;;;;;;;;;;;;;;12.84;41.66;100095.59;4968485;28;20115;-78
2022/11/05 05:54:41;;;;;;;0.67;0.63;;;;;;;12.83;41.38;100099.47;4957210;28;19918;-79
2022/11/05 05:57:26;;;;;;;1.98;0.68;;;;;;;12.97;47.27;100102.59;4959710;28;20405;-80
2022/11/05 06:00:11;;;;;;;9.00;1.23;;;;;;;13.12;52.55;100104.63;4958983;28;20050;-80
2022/11/05 06:02:56;;;;;;;1.23;0.47;;;;;;;13.22;55.21;100103.31;4958080;29;20414;-79
2022/11/05 06:05:40;;;;;;;1.50;0.30;;;;;;;13.27;56.88;100108.53;4963357;28;20061;-80
2022/11/05 06:08:25;;;;;;;7.30;0.60;;;;;;;13.36;58.10;100111.13;4961966;28;20050;-80
2022/11/05 06:11:09;;;;;;;2.10;0.20;;;;;;;13.37;59.22;100113.50;4964018;28;20050;-80
2022/11/05 06:13:54;;;;;;;;;;;;;;;13.45;59.87;100120.78;4964318;28;20070;-80
2022/11/05 06:16:39;;;;;;;9.73;1.08;;;;;;;13.49;60.09;100115.38;4965742;28;19914;-80
2022/11/05 06:19:25;;;;;;;2.80;0.43;;;;;;;13.59;60.29;100125.81;4968618;28;20414;-80
2022/11/05 06:22:09;;;;;;;5.90;0.22;;;;;;;13.58;60.70;100125.00;4958845;28;20046;-80
2022/11/05 06:24:54;;;;;;;1.02;0.30;;;;;;;13.58;61.05;100124.22;4962072;28;20050;-79
2022/11/05 06:27:38;;;;;;;3.55;0.30;;;;;;;13.60;61.22;100130.94;4965554;28;20419;-80
2022/11/05 06:30:24;;;;;;;0.55;0.32;;;;;;;13.62;61.34;100131.34;4991802;28;20050;-80
2022/11/05 06:33:08;;;;;;;0.15;0.10;;;;;;;13.64;61.67;100139.22;4965106;28;20058;-79
2022/11/05 06:35:53;;;;;;;0.88;0.20;;;;;;;13.68;61.51;100140.91;4956230;29;20521;-79
2022/11/05 06:38:38;;;;;;;;;;;;;;;13.78;62.18;100147.78;4964551;28;20121;-80
2022/11/05 06:41:22;;;;;;;1.83;0.52;;;;;;;13.85;62.43;100149.91;4940096;29;19915;-80
2022/11/05 06:44:07;;;;;;;;;;;;;;;13.93;62.52;100148.94;4956059;28;20046;-80
2022/11/05 06:46:52;;;;;;;0.63;0.30;;;;;;;13.90;62.42;100157.88;4953684;29;19918;-80
2022/11/05 06:49:36;;;;;;;0.70;0.20;;;;;;;13.90;61.77;100158.66;4956863;29;20061;-80
2022/11/05 06:52:21;;;;;;;1.52;0.30;;;;;;;13.90;61.74;100157.88;4955087;29;20058;-80
2022/11/05 06:55:06;;;;;;;1.52;0.35;;;;;;;13.89;61.05;100164.47;4956290;29;20059;-80
2022/11/05 06:57:50;;;;;;;;;;;;;;;13.96;61.62;100161.94;5048740;28;20051;-80
2022/11/05 07:00:35;;;;;;;1.98;0.30;;;;;;;13.97;61.57;100177.97;5043009;28;20317;-80
2022/11/05 07:03:20;;;;;;;;;;;;;;;13.97;61.89;100182.63;4958192;29;20093;-80
2022/11/05 07:06:06;;;;;;;1.02;0.30;;;;;;;13.97;62.21;100186.16;4958259;29;19918;-80
2022/11/05 07:08:51;;;;;;;0.40;0.20;;;;;;;13.94;62.01;100184.13;4958340;29;20096;-80
2022/11/05 07:11:36;;;;;;;0.52;0.40;;;;;;;14.02;62.33;100187.84;4959412;28;20046;-80
2022/11/05 07:14:20;;;;;;;1.55;0.20;;;;;;;14.01;62.51;100195.28;4956329;29;20070;-80
2022/11/05 07:17:05;;;;;;;0.38;0.20;;;;;;;14.01;62.50;100194.47;4952031;28;20046;-80
2022/11/05 07:19:50;;;;;;;;;;;;;;;14.03;62.75;100194.91;4960818;28;20054;-81
2022/11/05 07:22:35;;;;;;;1.08;0.20;;;;;;;14.08;62.95;100191.91;4945459;28;19915;-81
2022/11/05 07:25:20;;;;;;;4.28;1.05;;;;;;;14.19;63.29;100203.91;4949536;28;20050;-80
2022/11/05 07:28:07;;;;;;;1.40;0.20;;;;;;;14.26;63.12;100208.78;4948990;28;20038;-80
2022/11/05 07:30:53;;;;;;;7.55;0.47;;;;;;;14.32;62.92;100213.66;4948880;28;20054;-80
2022/11/05 07:33:37;;;;;;;;;;;;;;;14.36;61.88;100225.50;4974096;28;20050;-79
2022/11/05 07:36:21;;;;;;;0.20;0.20;;;;;;;14.35;62.43;100210.19;4956086;29;19918;-80
2022/11/05 07:39:07;;;;;;;;;;;;;;;14.46;62.50;100213.22;4950268;28;20050;-79
2022/11/05 07:41:53;;;;;;;1.92;0.10;;;;;;;14.47;62.69;100225.78;4948806;29;19918;-80
2022/11/05 07:44:38;;;;;;;0.10;0.10;;;;;;;14.48;62.91;100230.88;4950465;29;20047;-80
2022/11/05 07:47:22;;;;;;;2.17;0.20;;;;;;;14.46;62.25;100233.19;4944460;28;20054;-80
2022/11/05 07:50:07;;;;;;;0.73;0.30;;;;;;;14.48;62.40;100232.81;4946445;29;20131;-80
2022/11/05 07:52:52;;;;;;;1.38;0.30;;;;;;;14.58;62.45;100237.75;4953541;29;20054;-81
2022/11/05 07:55:39;;;;;;;;;;;;;;;14.57;62.02;100240.88;4957307;29;20066;-79
2022/11/05 07:58:23;;;;;;;0.35;0.10;;;;;;;14.54;62.05;100236.88;4972503;28;19915;-80
2022/11/05 08:01:08;;;;;;;0.55;0.30;;;;;;;14.55;61.23;100252.94;4953551;29;20343;-81
2022/11/05 08:03:53;;;;;;;1.42;0.50;;;;;;;14.56;61.76;100253.75;4959238;28;20046;-80
2022/11/05 08:06:38;;;;;;;1.13;0.85;;;;;;;14.62;61.54;100244.13;4969886;28;20050;-81
2022/11/05 08:09:23;;;;;;;0.15;0.10;;;;;;;14.64;61.92;100262.91;4960342;28;20058;-81
2022/11/05 08:12:07;;;;;;;1.20;0.30;;;;;;;14.68;61.91;100263.81;4959684;28;20050;-82
2022/11/05 08:14:55;;;;;;;;;;;;;;;14.70;61.88;100259.56;4956138;28;20556;-80
2022/11/05 08:17:40;;;;;;;0.43;0.10;;;;;;;14.64;61.67;100263.72;4959052;29;19915;-81
2022/11/05 08:20:26;;;;;;;0.40;0.20;;;;;;;14.62;59.92;100262.50;4955142;29;20054;-81
2022/11/05 08:23:11;;;;;;;0.60;0.20;;;;;;;14.62;60.25;100265.22;4962237;29;20050;-82
2022/11/05 08:25:56;;;;;;;;;;;;;;;14.60;60.84;100262.03;4959498;28;20047;-81
2022/11/05 08:28:41;;;;;;;0.10;0.10;;;;;;;14.64;61.10;100268.38;5003926;28;19922;-81
2022/11/05 08:31:26;;;;;;;4.28;0.30;;;;;;;14.64;61.17;100271.13;4977640;28;20645;-80
2022/11/05 08:34:11;;;;;;;;;;;;;;;14.62;61.15;100270.69;4968607;28;20471;-81
2022/11/05 08:36:55;;;;;;;1.08;0.45;;;;;;;14.60;60.68;100273.78;4962227;28;19914;-81
2022/11/05 08:39:40;;;;;;;;;;;;;;;14.63;61.35;100278.53;4968838;28;20058;-81
2022/11/05 08:42:25;;;;;;;1.45;0.32;;;;;;;14.59;60.76;100276.88;4970376;28;19915;-81
2022/11/05 08:45:09;;;;;;;0.22;0.22;;;;;;;14.55;58.02;100280.31;4962571;28;20038;-80
2022/11/05 08:47:59;;;;;;;;;;;;;;;14.53;58.09;100279.84;4958649;29;20054;-82
2022/11/05 08:50:45;;;;;;;2.03;0.60;;;;;;;14.54;58.19;100277.91;4963982;28;19914;-83
2022/11/05 08:53:30;;;;;;;0.57;0.30;;;;;;;14.55;59.48;100287.72;4964514;28;20054;-82
2022/11/05 08:56:15;;;;;;;;;;;;;;;14.53;60.14;100284.53;5020548;23;20060;-83
2022/11/05 08:59:00;;;;;;;1.65;0.25;;;;;;;14.47;59.35;100286.75;5024909;28;19917;-85
2022/11/05 09:01:45;;;;;;;;;;;;;;;14.48;58.43;100287.53;5024102;28;20061;-85
2022/11/05 09:04:29;;;;;;;3.50;0.30;;;;;;;14.45;58.74;100289.03;5049721;28;19913;-83
2022/11/05 09:07:14;;;;;;;;;;;;;;;14.48;59.04;100299.28;5035716;28;20425;-84
2022/11/05 09:09:59;;;;;;;0.75;0.20;;;;;;;14.45;59.23;100289.03;5041282;28;19913;-83
2022/11/05 09:12:43;;;;;;;0.10;0.10;;;;;;;14.42;57.62;100299.91;5041033;28;20053;-84
2022/11/05 09:15:34;;;;;;;0.10;0.10;;;;;;;14.45;57.01;100304.66;5050592;28;20048;-84
2022/11/05 09:18:28;;;;;;;0.30;0.20;;;;;;;14.44;56.40;100309.34;5032334;28;20064;-84
2022/11/05 09:22:04;;;;;;;0.17;0.10;;;;;;;14.42;53.07;100310.84;5040676;28;20045;-84
2022/11/05 09:24:49;;;;;;;6.78;0.45;;;;;;;14.39;51.78;100317.78;5040333;28;20056;-84
2022/11/05 09:27:42;;;;;;;1.13;0.50;;;;;;;14.44;51.81;100314.00;5039453;28;20048;-85
2022/11/05 09:30:28;;;;;;;2.35;0.65;;;;;;;14.45;52.17;100312.88;5040355;28;20064;-86
2022/11/05 09:33:14;;;;;;;1.73;0.70;;;;;;;14.47;52.44;100316.84;5040253;28;20532;-86
2022/11/05 09:36:02;;;;;;;2.50;0.80;;;;;;;14.47;52.53;100318.78;5042729;28;20413;-84
2022/11/05 09:38:48;;;;;;;2.88;0.65;;;;;;;14.48;51.62;100315.69;5039025;28;20420;-85
2022/11/05 09:41:38;;;;;;;1.38;0.60;;;;;;;14.51;51.07;100317.75;5038376;28;20045;-86
2022/11/05 09:44:27;;;;;;;6.18;0.75;;;;;;;14.51;49.84;100331.41;5057090;28;20527;-85
2022/11/05 09:47:23;;;;;;;1.80;0.75;;;;;;;14.53;49.39;100329.09;5038862;28;20048;-85
2022/11/05 09:50:14;;;;;;;7.63;0.55;;;;;;;14.55;48.25;100331.50;5034389;28;20041;-86
2022/11/05 09:53:00;;;;;;;22.85;1.45;;;;;;;14.55;47.19;100332.31;5025140;28;20049;-85
2022/11/05 09:55:49;;;;;;;0.60;0.60;;;;;;;14.60;46.98;100338.66;5018113;28;20056;-85
2022/11/05 09:58:42;;;;;;;1.65;0.47;;;;;;;14.60;47.18;100344.13;5031410;28;20069;-85
2022/11/05 10:01:32;;;;;;;1.40;0.63;;;;;;;14.60;47.19;100338.66;5018138;28;20148;-84
2022/11/05 10:04:20;;;;;;;0.75;0.75;;;;;;;14.61;46.75;100343.00;5022119;28;20048;-84
2022/11/05 10:07:11;;;;;;;1.20;0.57;;;;;;;14.64;47.20;100345.00;5016944;28;20053;-85
2022/11/05 10:10:03;;;;;;;6.68;0.75;;;;;;;14.68;47.93;100346.69;5042060;28;20056;-85
2022/11/05 10:12:52;;;;;;;1.38;0.32;;;;;;;14.68;48.45;100348.66;5043169;28;20400;-84
2022/11/05 10:15:48;;;;;;;3.22;0.43;;;;;;;14.75;49.14;100357.03;5036918;28;20064;-85
2022/11/05 10:18:40;;;;;;;1.23;0.90;;;;;;;14.77;49.13;100350.09;5042712;28;20052;-85
2022/11/05 10:21:25;;;;;;;0.68;0.38;;;;;;;14.77;49.55;100350.09;5034996;28;20064;-86
2022/11/05 10:24:14;;;;;;;;;;;;;;;14.81;50.51;100352.91;5042698;28;20412;-84
2022/11/05 10:26:59;;;;;;;1.42;0.50;;;;;;;14.78;50.46;100351.66;5017423;28;19913;-83
2022/11/05 10:29:45;;;;;;;;;;;;;;;14.83;50.95;100347.88;5036240;28;20060;-83
2022/11/05 10:32:34;;;;;;;;;;;;;;;14.86;51.53;100349.91;5021729;28;20297;-85
2022/11/05 10:35:21;;;;;;;2.17;0.98;;;;;;;14.87;51.49;100355.03;5038926;28;20392;-83
2022/11/05 10:38:13;;;;;;;1.58;0.30;;;;;;;14.91;52.57;100355.91;5041425;28;20531;-83
2022/11/05 10:41:17;;;;;;;0.52;0.30;;;;;;;14.90;52.52;100350.78;5041790;28;20060;-86
2022/11/05 10:44:39;;;;;;;0.32;0.20;;;;;;;14.92;52.97;100354.78;5041171;28;20040;-83
2022/11/05 10:47:49;;;;;;;2.08;0.52;;;;;;;14.95;51.97;100354.06;5041278;28;20523;-84
2022/11/05 10:50:34;;;;;;;1.00;0.32;;;;;;;14.96;52.20;100354.84;5037971;28;20417;-84
2022/11/05 10:53:21;;;;;;;;;;;;;;;15.01;52.94;100362.78;5035948;28;20053;-85
2022/11/05 10:56:31;;;;;;;1.10;0.47;;;;;;;15.02;53.77;100356.19;5030603;28;19921;-84
2022/11/05 10:59:23;;;;;;;1.50;0.40;;;;;;;15.02;53.53;100358.91;5037313;28;20048;-83
2022/11/05 11:02:13;;;;;;;0.82;0.35;;;;;;;15.02;53.02;100364.41;5034935;28;20052;-83
2022/11/05 11:04:58;;;;;;;1.42;0.25;;;;;;;14.99;52.43;100359.59;5037462;28;20401;-85
2022/11/05 11:07:43;;;;;;;;;;;;;;;15.01;53.41;100353.78;5042111;28;20061;-82
2022/11/05 11:10:32;;;;;;;1.55;0.40;;;;;;;15.01;53.03;100357.31;5025292;28;19913;-80
2022/11/05 11:13:26;;;;;;;6.97;0.40;;;;;;;15.03;53.92;100357.78;5025403;28;20444;-84
2022/11/05 11:16:19;;;;;;;1.07;0.30;;;;;;;15.03;53.50;100357.78;5025301;28;20049;-84
2022/11/05 11:19:25;;;;;;;4.97;0.93;;;;;;;15.03;53.68;100352.31;5018201;28;20288;-84
2022/11/05 11:22:14;;;;;;;2.47;0.30;;;;;;;15.09;54.59;100355.53;5020689;28;20041;-85
2022/11/05 11:25:22;;;;;;;3.03;0.35;;;;;;;15.10;55.97;100351.66;5037157;28;20045;-84
2022/11/05 11:28:16;;;;;;;2.08;0.32;;;;;;;15.13;56.30;100357.25;5039365;28;20044;-84
2022/11/05 11:31:14;;;;;;;2.33;0.50;;;;;;;15.13;55.53;100357.25;5036825;28;20072;-84
2022/11/05 11:34:05;;;;;;;0.70;0.30;;;;;;;15.16;56.04;100353.78;5031995;28;20822;-85
2022/11/05 11:36:55;;;;;;;0.85;0.20;;;;;;;15.18;56.24;100353.44;5033348;28;20048;-83
2022/11/05 11:39:45;;;;;;;0.82;0.30;;;;;;;15.18;56.74;100351.50;5040991;28;20056;-81
2022/11/05 11:42:39;;;;;;;0.85;0.40;;;;;;;15.19;56.50;100347.59;5020178;28;20057;-82
2022/11/05 11:45:30;;;;;;;0.68;0.25;;;;;;;15.21;57.94;100345.28;5025062;28;20040;-81
2022/11/05 11:48:17;;;;;;;1.65;0.40;;;;;;;15.45;48.01;100346.22;5024609;28;20052;-77
2022/11/05 11:51:29;;;;;;;0.38;0.28;;;;;;;15.74;52.61;100352.03;5032783;28;20052;-77
2022/11/05 11:54:20;;;;;;;1.42;0.30;;;;;;;15.88;47.13;100337.03;5031848;28;20527;-78
2022/11/05 11:57:20;;;;;;;1.05;0.35;;;;;;;16.04;46.62;100338.56;5032188;28;20056;-77
2022/11/05 12:00:07;;;;;;;1.95;0.50;;;;;;;16.15;48.16;100338.78;5032864;28;20045;-78
2022/11/05 12:03:06;;;;;;;0.40;0.32;;;;;;;16.23;45.72;100343.25;5037612;28;20535;-83
2022/11/05 12:06:24;;;;;;;4.22;0.45;;;;;;;16.27;47.51;100344.91;5030802;28;20064;-78
2022/11/05 12:09:33;;;;;;;1.95;0.50;;;;;;;16.45;46.77;100339.75;5036246;28;20049;-78
2022/11/05 12:12:29;;;;;;;17.38;0.85;;;;;;;16.51;42.53;100341.03;5037447;28;20057;-79
2022/11/05 12:15:20;;;;;;;1.20;0.28;;;;;;;16.58;45.35;100354.09;5033642;28;20068;-78
2022/11/05 12:18:11;;;;;;;0.70;0.20;;;;;;;16.67;44.31;100351.94;5033786;28;20056;-80
2022/11/05 12:21:11;;;;;;;1.73;0.50;;;;;;;16.75;41.77;100350.91;5035862;28;20404;-80
2022/11/05 12:24:25;;;;;;;1.65;0.20;;;;;;;16.73;43.90;100347.75;5041630;28;20052;-79
2022/11/05 12:27:24;;;;;;;1.60;0.30;;;;;;;16.75;43.54;100337.19;5034751;28;20048;-78
2022/11/05 12:30:18;;;;;;;2.35;0.40;;;;;;;16.81;43.56;100340.44;5046597;28;20052;-80
2022/11/05 12:33:17;;;;;;;4.20;0.45;;;;;;;16.96;39.80;100337.56;5044517;28;20049;-82
2022/11/05 12:36:12;;;;;;;0.60;0.40;;;;;;;17.03;43.06;100340.41;5043264;28;20811;-82
2022/11/05 12:39:22;;;;;;;4.68;0.50;;;;;;;17.15;41.22;100341.38;5047260;28;20412;-82
2022/11/05 12:42:32;;;;;;;2.95;0.57;;;;;;;17.25;40.08;100338.81;5039665;28;20048;-82
2022/11/05 12:45:34;;;;;;;0.65;0.43;;;;;;;17.29;39.75;100342.38;5043088;28;20036;-82
2022/11/05 12:48:32;;;;;;;0.47;0.20;;;;;;;17.45;37.12;100347.75;5040830;28;20052;-83
2022/11/05 12:51:35;;;;;;;2.33;0.30;;;;;;;17.40;39.43;100343.34;5041061;28;20053;-81
2022/11/05 12:54:44;;;;;;;3.58;0.77;;;;;;;17.39;39.74;100344.50;5030885;28;20053;-80
2022/11/05 12:57:34;;;;;;;1.20;0.50;;;;;;;17.51;39.89;100341.56;5037220;28;20069;-80
2022/11/05 13:00:22;;;;;;;0.73;0.40;;;;;;;17.54;37.07;100345.50;5028164;28;20055;-80
2022/11/05 13:03:20;;;;;;;1.30;0.50;;;;;;;17.54;38.94;100345.50;5033760;28;20057;-82
2022/11/05 13:06:11;;;;;;;0.35;0.30;;;;;;;17.63;39.21;100354.31;5040153;28;20514;-79
2022/11/05 13:09:05;;;;;;;3.03;0.43;;;;;;;17.67;38.91;100349.66;5032235;28;20052;-80
2022/11/05 13:11:55;;;;;;;5.80;0.38;;;;;;;17.75;37.93;100353.28;5046308;28;20052;-79
2022/11/05 13:14:47;;;;;;;2.40;0.80;;;;;;;17.78;38.56;100356.09;5047325;28;20527;-79
2022/11/05 13:17:48;;;;;;;171.15;30.73;;;;;;;17.88;39.15;100344.44;5045281;28;20052;-82
2022/11/05 13:20:38;;;;;;;5.10;1.73;;;;;;;17.90;36.51;100336.59;5039591;28;20069;-82
2022/11/05 13:23:50;;;;;;;12.98;3.15;;;;;;;18.18;34.98;100338.94;5032279;28;20060;-83
2022/11/05 13:26:55;;;;;;;23.65;4.18;;;;;;;18.21;36.28;100343.69;5035912;28;20053;-81
2022/11/05 13:29:52;;;;;;;37.17;6.30;;;;;;;18.20;37.13;100347.59;5039064;28;20044;-80
2022/11/05 13:32:42;;;;;;;8.68;2.03;;;;;;;18.25;36.10;100339.00;5039655;28;20048;-80
2022/11/05 13:35:40;;;;;;;6.22;1.92;;;;;;;18.35;35.72;100341.06;5036853;28;20049;-79
2022/11/05 13:41:59;;;;;;;20.17;4.18;;;;;;;18.20;40.01;100333.03;5037880;28;20048;-79
2022/11/05 13:45:25;;;;;;;26.58;3.10;;;;;;;18.25;36.50;100329.94;5031919;28;20068;-82
2022/11/05 13:48:22;;;;;;;10.45;2.28;;;;;;;18.36;36.37;100333.63;5035398;28;20531;-82
2022/11/05 13:51:28;;;;;;;14.20;3.83;;;;;;;18.27;38.87;100335.88;5040296;28;20053;-82
2022/11/05 13:54:35;;;;;;;7.75;1.48;;;;;;;18.32;36.08;100347.34;5036195;28;20416;-81
2022/11/05 13:57:50;;;;;;;10.57;2.10;;;;;;;18.34;35.21;100341.44;5034233;28;20528;-81
2022/11/05 14:00:45;;;;;;;14.50;3.67;;;;;;;18.35;38.32;100348.53;5037546;28;20056;-81
2022/11/05 14:03:30;;;;;;;1.13;0.65;;;;;;;18.27;37.11;100341.38;5028552;28;20421;-82
2022/11/05 14:06:24;;;;;;;1.90;0.88;;;;;;;18.38;37.19;100343.09;5030747;28;20052;-79